sensor_id;sensor_type;location;lat;lon;timestamp;P1;durP1;ratioP1;P2;durP2;ratioP2
57317;SDS011;43157;50.982;18.132;2024-02-23T00:00:48;12.00;;;5.00;;
57317;SDS011;43157;50.982;18.132;2024-02-23T00:03:14;13.10;;;4.70;;
57317;SDS011;43157;50.982;18.132;2024-02-23T00:05:40;10.70;;;4.30;;
57317;SDS011;43157;50.982;18.132;2024-02-23T00:08:06;11.70;;;4.40;;
57317;SDS011;43157;50.982;18.132;2024-02-23T00:10:34;12.90;;;4.70;;
57317;SDS011;43157;50.982;18.132;2024-02-23T00:13:00;11.10;;;4.70;;
57317;SDS011;43157;50.982;18.132;2024-02-23T00:15:29;12.50;;;4.60;;
57317;SDS011;43157;50.982;18.132;2024-02-23T00:17:55;12.30;;;4.90;;
57317;SDS011;43157;50.982;18.132;2024-02-23T00:20:21;10.80;;;4.20;;
57317;SDS011;43157;50.982;18.132;2024-02-23T00:22:47;11.70;;;5.20;;
57317;SDS011;43157;50.982;18.132;2024-02-23T00:25:16;14.00;;;4.20;;
57317;SDS011;43157;50.982;18.132;2024-02-23T00:27:42;11.80;;;5.10;;
57317;SDS011;43157;50.982;18.132;2024-02-23T00:30:09;11.10;;;4.10;;
57317;SDS011;43157;50.982;18.132;2024-02-23T00:32:35;10.20;;;3.90;;
57317;SDS011;43157;50.982;18.132;2024-02-23T00:35:02;11.00;;;4.90;;
57317;SDS011;43157;50.982;18.132;2024-02-23T00:37:28;12.40;;;4.10;;
57317;SDS011;43157;50.982;18.132;2024-02-23T00:39:54;11.60;;;4.60;;
57317;SDS011;43157;50.982;18.132;2024-02-23T00:42:20;9.60;;;4.00;;
57317;SDS011;43157;50.982;18.132;2024-02-23T00:44:47;11.40;;;4.20;;
57317;SDS011;43157;50.982;18.132;2024-02-23T00:47:13;11.10;;;4.50;;
57317;SDS011;43157;50.982;18.132;2024-02-23T00:49:39;11.70;;;4.60;;
57317;SDS011;43157;50.982;18.132;2024-02-23T00:52:05;12.00;;;4.60;;
57317;SDS011;43157;50.982;18.132;2024-02-23T00:54:31;11.70;;;4.90;;
57317;SDS011;43157;50.982;18.132;2024-02-23T00:56:57;11.10;;;4.00;;
57317;SDS011;43157;50.982;18.132;2024-02-23T00:59:23;9.40;;;3.60;;
57317;SDS011;43157;50.982;18.132;2024-02-23T01:01:49;11.30;;;4.00;;
57317;SDS011;43157;50.982;18.132;2024-02-23T01:04:15;10.70;;;3.80;;
57317;SDS011;43157;50.982;18.132;2024-02-23T01:06:41;10.00;;;3.60;;
57317;SDS011;43157;50.982;18.132;2024-02-23T01:09:08;10.60;;;3.70;;
57317;SDS011;43157;50.982;18.132;2024-02-23T01:11:34;11.50;;;3.70;;
57317;SDS011;43157;50.982;18.132;2024-02-23T01:14:00;12.10;;;4.50;;
57317;SDS011;43157;50.982;18.132;2024-02-23T01:16:26;11.60;;;4.90;;
57317;SDS011;43157;50.982;18.132;2024-02-23T01:18:52;12.00;;;4.30;;
57317;SDS011;43157;50.982;18.132;2024-02-23T01:21:19;9.60;;;3.40;;
57317;SDS011;43157;50.982;18.132;2024-02-23T01:23:45;9.60;;;3.90;;
57317;SDS011;43157;50.982;18.132;2024-02-23T01:26:11;9.40;;;4.00;;
57317;SDS011;43157;50.982;18.132;2024-02-23T01:28:37;11.10;;;3.70;;
57317;SDS011;43157;50.982;18.132;2024-02-23T01:31:03;10.70;;;4.10;;
57317;SDS011;43157;50.982;18.132;2024-02-23T01:33:30;11.20;;;4.00;;
57317;SDS011;43157;50.982;18.132;2024-02-23T01:35:56;12.00;;;3.70;;
57317;SDS011;43157;50.982;18.132;2024-02-23T01:38:23;10.50;;;3.70;;
57317;SDS011;43157;50.982;18.132;2024-02-23T01:40:50;8.90;;;3.00;;
57317;SDS011;43157;50.982;18.132;2024-02-23T01:43:16;9.40;;;3.70;;
57317;SDS011;43157;50.982;18.132;2024-02-23T01:45:42;13.30;;;4.00;;
57317;SDS011;43157;50.982;18.132;2024-02-23T01:48:09;11.20;;;4.50;;
57317;SDS011;43157;50.982;18.132;2024-02-23T01:50:35;9.70;;;3.50;;
57317;SDS011;43157;50.982;18.132;2024-02-23T01:53:02;11.80;;;4.10;;
57317;SDS011;43157;50.982;18.132;2024-02-23T01:55:28;10.30;;;4.40;;
57317;SDS011;43157;50.982;18.132;2024-02-23T01:57:54;8.80;;;3.20;;
57317;SDS011;43157;50.982;18.132;2024-02-23T02:00:21;11.30;;;3.80;;
57317;SDS011;43157;50.982;18.132;2024-02-23T02:02:48;13.50;;;4.30;;
57317;SDS011;43157;50.982;18.132;2024-02-23T02:05:14;9.20;;;3.80;;
57317;SDS011;43157;50.982;18.132;2024-02-23T02:07:42;12.00;;;4.60;;
57317;SDS011;43157;50.982;18.132;2024-02-23T02:10:08;10.00;;;3.30;;
57317;SDS011;43157;50.982;18.132;2024-02-23T02:12:35;10.60;;;3.40;;
57317;SDS011;43157;50.982;18.132;2024-02-23T02:15:01;12.40;;;5.20;;
57317;SDS011;43157;50.982;18.132;2024-02-23T02:17:28;10.10;;;4.10;;
57317;SDS011;43157;50.982;18.132;2024-02-23T02:19:54;12.80;;;4.20;;
57317;SDS011;43157;50.982;18.132;2024-02-23T02:22:20;9.60;;;3.40;;
57317;SDS011;43157;50.982;18.132;2024-02-23T02:24:46;12.50;;;4.30;;
57317;SDS011;43157;50.982;18.132;2024-02-23T02:27:13;12.60;;;5.00;;
57317;SDS011;43157;50.982;18.132;2024-02-23T02:29:40;13.50;;;5.20;;
57317;SDS011;43157;50.982;18.132;2024-02-23T02:32:06;11.00;;;4.60;;
57317;SDS011;43157;50.982;18.132;2024-02-23T02:34:32;14.20;;;4.80;;
57317;SDS011;43157;50.982;18.132;2024-02-23T02:37:00;11.90;;;5.00;;
57317;SDS011;43157;50.982;18.132;2024-02-23T02:39:26;11.40;;;5.20;;
57317;SDS011;43157;50.982;18.132;2024-02-23T02:41:52;11.70;;;5.30;;
57317;SDS011;43157;50.982;18.132;2024-02-23T02:44:19;11.50;;;4.60;;
57317;SDS011;43157;50.982;18.132;2024-02-23T02:46:45;10.00;;;4.20;;
57317;SDS011;43157;50.982;18.132;2024-02-23T02:49:11;12.00;;;4.70;;
57317;SDS011;43157;50.982;18.132;2024-02-23T02:51:37;12.60;;;5.00;;
57317;SDS011;43157;50.982;18.132;2024-02-23T02:54:04;12.30;;;5.40;;
57317;SDS011;43157;50.982;18.132;2024-02-23T02:56:29;12.50;;;5.00;;
57317;SDS011;43157;50.982;18.132;2024-02-23T02:58:56;10.50;;;4.30;;
57317;SDS011;43157;50.982;18.132;2024-02-23T03:01:22;12.60;;;4.50;;
57317;SDS011;43157;50.982;18.132;2024-02-23T03:03:48;12.60;;;4.80;;
57317;SDS011;43157;50.982;18.132;2024-02-23T03:06:14;11.90;;;3.80;;
57317;SDS011;43157;50.982;18.132;2024-02-23T03:08:44;10.60;;;4.10;;
57317;SDS011;43157;50.982;18.132;2024-02-23T03:11:09;9.50;;;4.20;;
57317;SDS011;43157;50.982;18.132;2024-02-23T03:13:36;11.20;;;4.50;;
57317;SDS011;43157;50.982;18.132;2024-02-23T03:16:02;12.10;;;4.50;;
57317;SDS011;43157;50.982;18.132;2024-02-23T03:18:28;11.00;;;4.10;;
57317;SDS011;43157;50.982;18.132;2024-02-23T03:20:54;10.50;;;4.40;;
57317;SDS011;43157;50.982;18.132;2024-02-23T03:23:20;10.20;;;4.10;;
57317;SDS011;43157;50.982;18.132;2024-02-23T03:25:47;10.60;;;4.30;;
57317;SDS011;43157;50.982;18.132;2024-02-23T03:28:13;11.60;;;4.30;;
57317;SDS011;43157;50.982;18.132;2024-02-23T03:30:39;10.10;;;3.80;;
57317;SDS011;43157;50.982;18.132;2024-02-23T03:33:05;9.10;;;3.40;;
57317;SDS011;43157;50.982;18.132;2024-02-23T03:35:31;10.10;;;4.00;;
57317;SDS011;43157;50.982;18.132;2024-02-23T03:37:58;9.30;;;3.50;;
57317;SDS011;43157;50.982;18.132;2024-02-23T03:40:24;12.00;;;4.20;;
57317;SDS011;43157;50.982;18.132;2024-02-23T03:42:50;10.50;;;3.90;;
57317;SDS011;43157;50.982;18.132;2024-02-23T03:45:16;10.20;;;3.70;;
57317;SDS011;43157;50.982;18.132;2024-02-23T03:47:43;10.20;;;3.60;;
57317;SDS011;43157;50.982;18.132;2024-02-23T03:50:09;11.50;;;4.10;;
57317;SDS011;43157;50.982;18.132;2024-02-23T03:52:35;11.00;;;4.00;;
57317;SDS011;43157;50.982;18.132;2024-02-23T03:55:02;9.80;;;3.70;;
57317;SDS011;43157;50.982;18.132;2024-02-23T03:57:29;11.80;;;4.40;;
57317;SDS011;43157;50.982;18.132;2024-02-23T03:59:55;9.70;;;3.10;;
57317;SDS011;43157;50.982;18.132;2024-02-23T04:02:21;9.40;;;2.90;;
57317;SDS011;43157;50.982;18.132;2024-02-23T04:04:48;9.10;;;2.90;;
57317;SDS011;43157;50.982;18.132;2024-02-23T04:07:14;9.90;;;3.60;;
57317;SDS011;43157;50.982;18.132;2024-02-23T04:09:40;9.60;;;3.20;;
57317;SDS011;43157;50.982;18.132;2024-02-23T04:12:06;10.20;;;3.50;;
57317;SDS011;43157;50.982;18.132;2024-02-23T04:14:33;9.30;;;2.90;;
57317;SDS011;43157;50.982;18.132;2024-02-23T04:17:04;13.90;;;3.80;;
57317;SDS011;43157;50.982;18.132;2024-02-23T04:19:30;10.80;;;4.00;;
57317;SDS011;43157;50.982;18.132;2024-02-23T04:21:55;11.00;;;4.00;;
57317;SDS011;43157;50.982;18.132;2024-02-23T04:24:21;12.10;;;4.10;;
57317;SDS011;43157;50.982;18.132;2024-02-23T04:26:47;11.00;;;3.50;;
57317;SDS011;43157;50.982;18.132;2024-02-23T04:29:13;9.60;;;3.70;;
57317;SDS011;43157;50.982;18.132;2024-02-23T04:31:40;8.70;;;3.20;;
57317;SDS011;43157;50.982;18.132;2024-02-23T04:34:06;9.30;;;3.30;;
57317;SDS011;43157;50.982;18.132;2024-02-23T04:36:32;9.10;;;3.50;;
57317;SDS011;43157;50.982;18.132;2024-02-23T04:38:58;9.20;;;3.40;;
57317;SDS011;43157;50.982;18.132;2024-02-23T04:41:24;8.60;;;3.40;;
57317;SDS011;43157;50.982;18.132;2024-02-23T04:43:51;9.90;;;3.60;;
57317;SDS011;43157;50.982;18.132;2024-02-23T04:46:17;9.30;;;3.50;;
57317;SDS011;43157;50.982;18.132;2024-02-23T04:48:43;7.70;;;2.60;;
57317;SDS011;43157;50.982;18.132;2024-02-23T04:51:10;8.00;;;3.60;;
57317;SDS011;43157;50.982;18.132;2024-02-23T04:53:36;8.50;;;2.90;;
57317;SDS011;43157;50.982;18.132;2024-02-23T04:56:03;7.80;;;3.10;;
57317;SDS011;43157;50.982;18.132;2024-02-23T04:58:30;10.20;;;3.40;;
57317;SDS011;43157;50.982;18.132;2024-02-23T05:00:56;10.00;;;3.20;;
57317;SDS011;43157;50.982;18.132;2024-02-23T05:03:22;7.30;;;2.40;;
57317;SDS011;43157;50.982;18.132;2024-02-23T05:05:48;10.40;;;3.60;;
57317;SDS011;43157;50.982;18.132;2024-02-23T05:08:22;8.20;;;2.90;;
57317;SDS011;43157;50.982;18.132;2024-02-23T05:10:50;8.00;;;3.10;;
57317;SDS011;43157;50.982;18.132;2024-02-23T05:13:16;8.10;;;3.00;;
57317;SDS011;43157;50.982;18.132;2024-02-23T05:15:42;7.30;;;2.90;;
57317;SDS011;43157;50.982;18.132;2024-02-23T05:18:08;8.00;;;3.00;;
57317;SDS011;43157;50.982;18.132;2024-02-23T05:20:34;7.70;;;3.00;;
57317;SDS011;43157;50.982;18.132;2024-02-23T05:23:01;7.90;;;2.90;;
57317;SDS011;43157;50.982;18.132;2024-02-23T05:25:27;8.20;;;2.60;;
57317;SDS011;43157;50.982;18.132;2024-02-23T05:27:53;9.70;;;3.00;;
57317;SDS011;43157;50.982;18.132;2024-02-23T05:30:19;8.10;;;2.60;;
57317;SDS011;43157;50.982;18.132;2024-02-23T05:32:45;9.40;;;2.90;;
57317;SDS011;43157;50.982;18.132;2024-02-23T05:35:12;11.30;;;2.40;;
57317;SDS011;43157;50.982;18.132;2024-02-23T05:37:38;7.80;;;2.60;;
57317;SDS011;43157;50.982;18.132;2024-02-23T05:40:05;8.10;;;2.90;;
57317;SDS011;43157;50.982;18.132;2024-02-23T05:42:37;7.10;;;2.60;;
57317;SDS011;43157;50.982;18.132;2024-02-23T05:45:04;8.70;;;2.90;;
57317;SDS011;43157;50.982;18.132;2024-02-23T05:47:30;8.50;;;3.50;;
57317;SDS011;43157;50.982;18.132;2024-02-23T05:49:56;10.80;;;3.60;;
57317;SDS011;43157;50.982;18.132;2024-02-23T05:52:23;9.40;;;3.10;;
57317;SDS011;43157;50.982;18.132;2024-02-23T05:54:49;6.20;;;1.70;;
57317;SDS011;43157;50.982;18.132;2024-02-23T05:57:15;9.20;;;3.50;;
57317;SDS011;43157;50.982;18.132;2024-02-23T05:59:41;7.10;;;2.80;;
57317;SDS011;43157;50.982;18.132;2024-02-23T06:02:07;9.60;;;2.40;;
57317;SDS011;43157;50.982;18.132;2024-02-23T06:04:34;9.10;;;3.20;;
57317;SDS011;43157;50.982;18.132;2024-02-23T06:07:00;12.30;;;4.00;;
57317;SDS011;43157;50.982;18.132;2024-02-23T06:09:26;8.60;;;3.50;;
57317;SDS011;43157;50.982;18.132;2024-02-23T06:11:52;9.80;;;2.80;;
57317;SDS011;43157;50.982;18.132;2024-02-23T06:14:18;9.30;;;3.70;;
57317;SDS011;43157;50.982;18.132;2024-02-23T06:16:45;9.20;;;3.20;;
57317;SDS011;43157;50.982;18.132;2024-02-23T06:19:11;5.90;;;2.10;;
57317;SDS011;43157;50.982;18.132;2024-02-23T06:21:37;9.10;;;3.20;;
57317;SDS011;43157;50.982;18.132;2024-02-23T06:24:03;11.90;;;4.60;;
57317;SDS011;43157;50.982;18.132;2024-02-23T06:26:30;10.60;;;3.60;;
57317;SDS011;43157;50.982;18.132;2024-02-23T06:28:56;9.40;;;3.10;;
57317;SDS011;43157;50.982;18.132;2024-02-23T06:31:22;8.10;;;2.80;;
57317;SDS011;43157;50.982;18.132;2024-02-23T06:33:48;10.00;;;3.00;;
57317;SDS011;43157;50.982;18.132;2024-02-23T06:36:14;9.40;;;3.10;;
57317;SDS011;43157;50.982;18.132;2024-02-23T06:38:41;7.90;;;2.80;;
57317;SDS011;43157;50.982;18.132;2024-02-23T06:41:07;8.50;;;3.10;;
57317;SDS011;43157;50.982;18.132;2024-02-23T06:43:36;9.30;;;2.90;;
57317;SDS011;43157;50.982;18.132;2024-02-23T06:46:08;10.00;;;2.60;;
57317;SDS011;43157;50.982;18.132;2024-02-23T06:48:35;8.80;;;2.70;;
57317;SDS011;43157;50.982;18.132;2024-02-23T06:51:04;11.00;;;2.60;;
57317;SDS011;43157;50.982;18.132;2024-02-23T06:53:32;9.00;;;2.70;;
57317;SDS011;43157;50.982;18.132;2024-02-23T06:55:58;9.10;;;2.60;;
57317;SDS011;43157;50.982;18.132;2024-02-23T06:58:24;6.70;;;2.00;;
57317;SDS011;43157;50.982;18.132;2024-02-23T07:00:50;9.80;;;3.10;;
57317;SDS011;43157;50.982;18.132;2024-02-23T07:03:16;9.40;;;2.80;;
57317;SDS011;43157;50.982;18.132;2024-02-23T07:05:43;8.60;;;3.10;;
57317;SDS011;43157;50.982;18.132;2024-02-23T07:08:10;9.90;;;3.30;;
57317;SDS011;43157;50.982;18.132;2024-02-23T07:10:36;11.70;;;4.70;;
57317;SDS011;43157;50.982;18.132;2024-02-23T07:13:03;15.00;;;5.30;;
57317;SDS011;43157;50.982;18.132;2024-02-23T07:15:29;12.00;;;4.30;;
57317;SDS011;43157;50.982;18.132;2024-02-23T07:17:55;10.20;;;2.70;;
57317;SDS011;43157;50.982;18.132;2024-02-23T07:20:21;12.30;;;3.70;;
57317;SDS011;43157;50.982;18.132;2024-02-23T07:22:47;10.80;;;3.80;;
57317;SDS011;43157;50.982;18.132;2024-02-23T07:25:17;12.10;;;3.70;;
57317;SDS011;43157;50.982;18.132;2024-02-23T07:27:43;9.20;;;3.00;;
57317;SDS011;43157;50.982;18.132;2024-02-23T07:44:11;11.80;;;4.00;;
57317;SDS011;43157;50.982;18.132;2024-02-23T07:46:37;14.10;;;4.10;;
57317;SDS011;43157;50.982;18.132;2024-02-23T07:49:06;12.70;;;4.10;;
57317;SDS011;43157;50.982;18.132;2024-02-23T07:51:32;16.30;;;5.30;;
57317;SDS011;43157;50.982;18.132;2024-02-23T07:53:58;15.00;;;5.50;;
57317;SDS011;43157;50.982;18.132;2024-02-23T07:56:24;14.50;;;4.80;;
57317;SDS011;43157;50.982;18.132;2024-02-23T07:58:50;15.30;;;5.40;;
57317;SDS011;43157;50.982;18.132;2024-02-23T08:01:16;10.30;;;3.60;;
57317;SDS011;43157;50.982;18.132;2024-02-23T08:03:43;11.10;;;3.60;;
57317;SDS011;43157;50.982;18.132;2024-02-23T08:06:11;8.80;;;2.90;;
57317;SDS011;43157;50.982;18.132;2024-02-23T08:08:38;8.70;;;3.00;;
57317;SDS011;43157;50.982;18.132;2024-02-23T08:11:04;8.60;;;2.40;;
57317;SDS011;43157;50.982;18.132;2024-02-23T08:13:30;9.40;;;2.90;;
57317;SDS011;43157;50.982;18.132;2024-02-23T08:15:57;8.20;;;2.50;;
57317;SDS011;43157;50.982;18.132;2024-02-23T08:18:23;8.50;;;3.00;;
57317;SDS011;43157;50.982;18.132;2024-02-23T08:20:49;8.90;;;2.60;;
57317;SDS011;43157;50.982;18.132;2024-02-23T08:23:17;8.90;;;2.60;;
57317;SDS011;43157;50.982;18.132;2024-02-23T08:25:45;7.70;;;2.40;;
57317;SDS011;43157;50.982;18.132;2024-02-23T08:28:11;10.00;;;2.60;;
57317;SDS011;43157;50.982;18.132;2024-02-23T08:30:37;10.90;;;3.00;;
57317;SDS011;43157;50.982;18.132;2024-02-23T08:33:03;8.70;;;2.80;;
57317;SDS011;43157;50.982;18.132;2024-02-23T08:35:31;10.00;;;3.70;;
57317;SDS011;43157;50.982;18.132;2024-02-23T08:37:57;8.50;;;3.10;;
57317;SDS011;43157;50.982;18.132;2024-02-23T08:40:23;8.10;;;2.60;;
57317;SDS011;43157;50.982;18.132;2024-02-23T08:42:49;10.30;;;2.80;;
57317;SDS011;43157;50.982;18.132;2024-02-23T08:45:15;7.30;;;2.20;;
57317;SDS011;43157;50.982;18.132;2024-02-23T08:47:41;8.50;;;2.30;;
57317;SDS011;43157;50.982;18.132;2024-02-23T08:50:08;7.10;;;2.50;;
57317;SDS011;43157;50.982;18.132;2024-02-23T08:52:34;9.10;;;2.90;;
57317;SDS011;43157;50.982;18.132;2024-02-23T08:55:00;7.30;;;2.10;;
57317;SDS011;43157;50.982;18.132;2024-02-23T08:57:27;7.10;;;2.50;;
57317;SDS011;43157;50.982;18.132;2024-02-23T08:59:53;7.30;;;2.40;;
57317;SDS011;43157;50.982;18.132;2024-02-23T09:02:19;8.30;;;2.70;;
57317;SDS011;43157;50.982;18.132;2024-02-23T09:04:45;8.10;;;3.10;;
57317;SDS011;43157;50.982;18.132;2024-02-23T09:07:12;8.20;;;2.50;;
57317;SDS011;43157;50.982;18.132;2024-02-23T09:09:38;10.70;;;3.30;;
57317;SDS011;43157;50.982;18.132;2024-02-23T09:12:05;8.80;;;2.90;;
57317;SDS011;43157;50.982;18.132;2024-02-23T09:14:32;11.30;;;3.40;;
57317;SDS011;43157;50.982;18.132;2024-02-23T09:17:00;7.90;;;2.80;;
57317;SDS011;43157;50.982;18.132;2024-02-23T09:19:27;8.10;;;2.60;;
57317;SDS011;43157;50.982;18.132;2024-02-23T09:21:53;7.30;;;2.20;;
57317;SDS011;43157;50.982;18.132;2024-02-23T09:24:19;8.90;;;2.70;;
57317;SDS011;43157;50.982;18.132;2024-02-23T09:26:48;6.20;;;2.00;;
57317;SDS011;43157;50.982;18.132;2024-02-23T09:29:15;8.30;;;2.40;;
57317;SDS011;43157;50.982;18.132;2024-02-23T09:31:41;6.70;;;2.50;;
57317;SDS011;43157;50.982;18.132;2024-02-23T09:34:07;8.70;;;2.70;;
57317;SDS011;43157;50.982;18.132;2024-02-23T09:36:33;8.30;;;2.40;;
57317;SDS011;43157;50.982;18.132;2024-02-23T09:38:59;8.80;;;2.60;;
57317;SDS011;43157;50.982;18.132;2024-02-23T09:41:27;6.70;;;2.30;;
57317;SDS011;43157;50.982;18.132;2024-02-23T09:43:53;6.10;;;2.20;;
57317;SDS011;43157;50.982;18.132;2024-02-23T09:46:24;7.40;;;2.40;;
57317;SDS011;43157;50.982;18.132;2024-02-23T09:48:50;7.50;;;2.10;;
57317;SDS011;43157;50.982;18.132;2024-02-23T09:51:17;8.50;;;2.70;;
57317;SDS011;43157;50.982;18.132;2024-02-23T09:53:43;6.40;;;2.20;;
57317;SDS011;43157;50.982;18.132;2024-02-23T09:56:09;8.10;;;2.60;;
57317;SDS011;43157;50.982;18.132;2024-02-23T09:58:36;7.40;;;2.10;;
57317;SDS011;43157;50.982;18.132;2024-02-23T10:01:03;7.70;;;2.40;;
57317;SDS011;43157;50.982;18.132;2024-02-23T10:03:29;5.40;;;1.90;;
57317;SDS011;43157;50.982;18.132;2024-02-23T10:05:59;6.70;;;2.20;;
57317;SDS011;43157;50.982;18.132;2024-02-23T10:08:28;8.50;;;2.90;;
57317;SDS011;43157;50.982;18.132;2024-02-23T10:10:54;8.40;;;2.40;;
57317;SDS011;43157;50.982;18.132;2024-02-23T10:13:24;32.20;;;10.00;;
57317;SDS011;43157;50.982;18.132;2024-02-23T10:15:50;18.60;;;5.00;;
57317;SDS011;43157;50.982;18.132;2024-02-23T10:18:17;15.10;;;4.30;;
57317;SDS011;43157;50.982;18.132;2024-02-23T10:20:43;12.70;;;3.70;;
57317;SDS011;43157;50.982;18.132;2024-02-23T10:23:09;31.50;;;11.00;;
57317;SDS011;43157;50.982;18.132;2024-02-23T10:25:36;26.70;;;11.00;;
57317;SDS011;43157;50.982;18.132;2024-02-23T10:28:03;13.80;;;5.80;;
57317;SDS011;43157;50.982;18.132;2024-02-23T10:30:30;11.90;;;4.80;;
57317;SDS011;43157;50.982;18.132;2024-02-23T10:32:56;11.30;;;3.40;;
57317;SDS011;43157;50.982;18.132;2024-02-23T10:35:23;11.40;;;3.00;;
57317;SDS011;43157;50.982;18.132;2024-02-23T10:37:49;12.90;;;3.50;;
57317;SDS011;43157;50.982;18.132;2024-02-23T10:40:16;42.00;;;11.00;;
57317;SDS011;43157;50.982;18.132;2024-02-23T10:42:44;39.90;;;9.30;;
57317;SDS011;43157;50.982;18.132;2024-02-23T10:45:17;43.90;;;12.60;;
57317;SDS011;43157;50.982;18.132;2024-02-23T10:47:43;38.70;;;9.60;;
57317;SDS011;43157;50.982;18.132;2024-02-23T10:50:09;14.90;;;4.60;;
57317;SDS011;43157;50.982;18.132;2024-02-23T10:52:42;23.20;;;6.20;;
57317;SDS011;43157;50.982;18.132;2024-02-23T10:55:08;15.20;;;4.80;;
57317;SDS011;43157;50.982;18.132;2024-02-23T10:57:35;14.50;;;4.40;;
57317;SDS011;43157;50.982;18.132;2024-02-23T11:00:02;13.30;;;4.00;;
57317;SDS011;43157;50.982;18.132;2024-02-23T11:02:31;11.20;;;3.70;;
57317;SDS011;43157;50.982;18.132;2024-02-23T11:04:57;11.40;;;4.20;;
57317;SDS011;43157;50.982;18.132;2024-02-23T11:07:24;13.40;;;4.90;;
57317;SDS011;43157;50.982;18.132;2024-02-23T11:09:55;14.30;;;5.40;;
57317;SDS011;43157;50.982;18.132;2024-02-23T11:12:24;9.80;;;3.60;;
57317;SDS011;43157;50.982;18.132;2024-02-23T11:14:50;7.10;;;2.50;;
57317;SDS011;43157;50.982;18.132;2024-02-23T11:17:17;10.20;;;2.60;;
57317;SDS011;43157;50.982;18.132;2024-02-23T11:19:48;7.10;;;2.30;;
57317;SDS011;43157;50.982;18.132;2024-02-23T11:22:24;4.30;;;1.10;;
57317;SDS011;43157;50.982;18.132;2024-02-23T11:24:52;8.50;;;1.90;;
57317;SDS011;43157;50.982;18.132;2024-02-23T11:27:18;11.00;;;2.80;;
57317;SDS011;43157;50.982;18.132;2024-02-23T11:29:45;7.00;;;1.70;;
57317;SDS011;43157;50.982;18.132;2024-02-23T11:32:16;5.10;;;1.30;;
57317;SDS011;43157;50.982;18.132;2024-02-23T11:34:54;5.60;;;1.20;;
57317;SDS011;43157;50.982;18.132;2024-02-23T11:37:23;8.00;;;1.80;;
57317;SDS011;43157;50.982;18.132;2024-02-23T11:39:49;6.10;;;1.70;;
57317;SDS011;43157;50.982;18.132;2024-02-23T11:42:15;5.90;;;1.50;;
57317;SDS011;43157;50.982;18.132;2024-02-23T11:44:41;5.70;;;1.50;;
57317;SDS011;43157;50.982;18.132;2024-02-23T11:47:07;5.80;;;1.10;;
57317;SDS011;43157;50.982;18.132;2024-02-23T11:49:36;6.40;;;1.90;;
57317;SDS011;43157;50.982;18.132;2024-02-23T11:52:03;6.60;;;1.70;;
57317;SDS011;43157;50.982;18.132;2024-02-23T11:54:29;4.30;;;1.10;;
57317;SDS011;43157;50.982;18.132;2024-02-23T11:56:55;6.10;;;1.50;;
57317;SDS011;43157;50.982;18.132;2024-02-23T11:59:22;4.50;;;1.00;;
57317;SDS011;43157;50.982;18.132;2024-02-23T12:01:48;4.60;;;1.10;;
57317;SDS011;43157;50.982;18.132;2024-02-23T12:04:15;4.10;;;1.00;;
57317;SDS011;43157;50.982;18.132;2024-02-23T12:06:44;4.00;;;1.20;;
57317;SDS011;43157;50.982;18.132;2024-02-23T12:09:11;7.60;;;1.10;;
57317;SDS011;43157;50.982;18.132;2024-02-23T12:11:38;4.60;;;0.90;;
57317;SDS011;43157;50.982;18.132;2024-02-23T12:14:04;6.90;;;1.20;;
57317;SDS011;43157;50.982;18.132;2024-02-23T12:16:34;5.60;;;1.10;;
57317;SDS011;43157;50.982;18.132;2024-02-23T12:19:03;3.80;;;0.80;;
57317;SDS011;43157;50.982;18.132;2024-02-23T12:21:29;7.20;;;1.20;;
57317;SDS011;43157;50.982;18.132;2024-02-23T12:23:56;12.40;;;2.60;;
57317;SDS011;43157;50.982;18.132;2024-02-23T12:26:22;11.60;;;2.60;;
57317;SDS011;43157;50.982;18.132;2024-02-23T12:28:48;12.00;;;3.40;;
57317;SDS011;43157;50.982;18.132;2024-02-23T12:31:14;13.00;;;3.50;;
57317;SDS011;43157;50.982;18.132;2024-02-23T12:33:40;32.00;;;7.10;;
57317;SDS011;43157;50.982;18.132;2024-02-23T12:36:07;31.00;;;5.80;;
57317;SDS011;43157;50.982;18.132;2024-02-23T12:38:33;12.90;;;2.10;;
57317;SDS011;43157;50.982;18.132;2024-02-23T12:41:00;25.80;;;9.10;;
57317;SDS011;43157;50.982;18.132;2024-02-23T12:43:28;29.30;;;8.00;;
57317;SDS011;43157;50.982;18.132;2024-02-23T12:45:54;37.00;;;8.60;;
57317;SDS011;43157;50.982;18.132;2024-02-23T12:48:20;31.10;;;8.20;;
57317;SDS011;43157;50.982;18.132;2024-02-23T12:50:46;45.90;;;14.10;;
57317;SDS011;43157;50.982;18.132;2024-02-23T12:53:29;26.60;;;7.50;;
57317;SDS011;43157;50.982;18.132;2024-02-23T12:56:06;12.40;;;4.50;;
57317;SDS011;43157;50.982;18.132;2024-02-23T12:58:39;13.50;;;3.80;;
57317;SDS011;43157;50.982;18.132;2024-02-23T13:01:06;10.00;;;2.40;;
57317;SDS011;43157;50.982;18.132;2024-02-23T13:03:33;9.60;;;2.00;;
57317;SDS011;43157;50.982;18.132;2024-02-23T13:05:59;7.60;;;1.60;;
57317;SDS011;43157;50.982;18.132;2024-02-23T13:08:25;9.20;;;2.40;;
57317;SDS011;43157;50.982;18.132;2024-02-23T13:10:52;6.70;;;1.10;;
57317;SDS011;43157;50.982;18.132;2024-02-23T13:13:18;14.60;;;5.20;;
57317;SDS011;43157;50.982;18.132;2024-02-23T13:15:45;18.60;;;8.20;;
57317;SDS011;43157;50.982;18.132;2024-02-23T13:18:12;14.20;;;4.60;;
57317;SDS011;43157;50.982;18.132;2024-02-23T13:20:38;17.80;;;6.40;;
57317;SDS011;43157;50.982;18.132;2024-02-23T13:23:05;13.90;;;5.30;;
57317;SDS011;43157;50.982;18.132;2024-02-23T13:25:34;10.60;;;3.40;;
57317;SDS011;43157;50.982;18.132;2024-02-23T13:28:00;9.30;;;2.10;;
57317;SDS011;43157;50.982;18.132;2024-02-23T13:30:26;10.30;;;3.00;;
57317;SDS011;43157;50.982;18.132;2024-02-23T13:32:53;10.20;;;2.60;;
57317;SDS011;43157;50.982;18.132;2024-02-23T13:35:19;11.40;;;2.40;;
57317;SDS011;43157;50.982;18.132;2024-02-23T13:37:45;7.10;;;2.00;;
57317;SDS011;43157;50.982;18.132;2024-02-23T13:40:11;10.10;;;3.50;;
57317;SDS011;43157;50.982;18.132;2024-02-23T13:42:38;12.10;;;2.60;;
57317;SDS011;43157;50.982;18.132;2024-02-23T13:45:07;14.30;;;4.30;;
57317;SDS011;43157;50.982;18.132;2024-02-23T13:47:33;10.50;;;3.50;;
57317;SDS011;43157;50.982;18.132;2024-02-23T13:50:00;8.90;;;2.90;;
57317;SDS011;43157;50.982;18.132;2024-02-23T13:52:26;10.50;;;3.20;;
57317;SDS011;43157;50.982;18.132;2024-02-23T13:54:52;6.90;;;2.10;;
57317;SDS011;43157;50.982;18.132;2024-02-23T13:57:19;10.10;;;3.10;;
57317;SDS011;43157;50.982;18.132;2024-02-23T13:59:45;9.90;;;2.30;;
57317;SDS011;43157;50.982;18.132;2024-02-23T14:02:12;12.00;;;3.10;;
57317;SDS011;43157;50.982;18.132;2024-02-23T14:04:38;8.90;;;2.70;;
57317;SDS011;43157;50.982;18.132;2024-02-23T14:07:04;11.40;;;3.60;;
57317;SDS011;43157;50.982;18.132;2024-02-23T14:09:30;11.70;;;4.40;;
57317;SDS011;43157;50.982;18.132;2024-02-23T14:11:57;14.90;;;5.80;;
57317;SDS011;43157;50.982;18.132;2024-02-23T14:14:23;16.30;;;7.10;;
57317;SDS011;43157;50.982;18.132;2024-02-23T14:16:49;14.00;;;6.70;;
57317;SDS011;43157;50.982;18.132;2024-02-23T14:19:15;17.30;;;7.10;;
57317;SDS011;43157;50.982;18.132;2024-02-23T14:21:41;34.30;;;13.10;;
57317;SDS011;43157;50.982;18.132;2024-02-23T14:24:07;48.50;;;18.10;;
57317;SDS011;43157;50.982;18.132;2024-02-23T14:26:33;63.60;;;22.40;;
57317;SDS011;43157;50.982;18.132;2024-02-23T14:28:59;69.10;;;24.20;;
57317;SDS011;43157;50.982;18.132;2024-02-23T14:31:25;59.80;;;22.80;;
57317;SDS011;43157;50.982;18.132;2024-02-23T14:33:51;61.20;;;21.20;;
57317;SDS011;43157;50.982;18.132;2024-02-23T14:36:18;61.90;;;23.70;;